PWSweather.com
Personal Weather Stations
Station Observations

ChardChardGB

Lat: 50.877408, Lon: -2.94964741

Elevation: 341

Station Type: WS3083

http://www.merriott-astro.co.uk/weather/index.htm

High Low Average
Temperature 79.3°F26.3°C 59.4°F15.2°C 68.6°F20.3°C
Dew Point 59.6°F15.3°C 44.9°F7.2°C 52.9°F11.6°C
Winds 9.8 mph 15.8 kmh Calm Calm 5.0 mph NE8.0 kmh NE
Wind Gusts 15.2 mph24.5 kmh -- 7.0 mph11.3 kmh
Humidity 89% 31% 62%
Pressure 29.66 in1004.4 mb 29.59 in1002.0 mb -
Precipitation 0.00 in0.0 mm - -
Hour Temp Dew Point Humidity Winds Wind Gusts Pressure Precip Precip Rate Daily Precip Total
12:00 AM 63.1°F17.3°C 57.2°F14.0°C 81% Calm Calm -- 29.64 in1003.7 mb 0.00 in0.0 mm 0.00 in0.0 mm 0.00 in0.0 mm
12:10 AM 63.1°F17.3°C 57.2°F14.0°C 81% Calm Calm -- 29.65 in1004.1 mb 0.00 in0.0 mm 0.00 in0.0 mm 0.00 in0.0 mm
12:20 AM 63.1°F17.3°C 57.2°F14.0°C 81% Calm Calm -- 29.65 in1004.1 mb 0.00 in0.0 mm 0.00 in0.0 mm 0.00 in0.0 mm
12:30 AM 63.1°F17.3°C 57.2°F14.0°C 81% 0.5 mph SE0.8 kmh SE 1.6 mph2.6 kmh 29.65 in1004.1 mb 0.00 in0.0 mm 0.00 in0.0 mm 0.00 in0.0 mm
12:40 AM 62.4°F16.9°C 56.9°F13.8°C 82% 4.8 mph S7.7 kmh S 6.0 mph9.7 kmh 29.65 in1004.1 mb 0.00 in0.0 mm 0.00 in0.0 mm 0.00 in0.0 mm
12:50 AM 61.7°F16.5°C 56.5°F13.6°C 83% 3.1 mph S5.0 kmh S 5.4 mph8.7 kmh 29.65 in1004.1 mb 0.00 in0.0 mm 0.00 in0.0 mm 0.00 in0.0 mm
01:00 AM 61.0°F16.1°C 56.5°F13.6°C 85% 4.7 mph SSW7.6 kmh SSW 6.9 mph11.1 kmh 29.64 in1003.7 mb 0.00 in0.0 mm 0.00 in0.0 mm 0.00 in0.0 mm
01:10 AM 60.4°F15.8°C 56.2°F13.4°C 86% 4.5 mph S7.2 kmh S 6.9 mph11.1 kmh 29.65 in1004.1 mb 0.00 in0.0 mm 0.00 in0.0 mm 0.00 in0.0 mm
01:20 AM 60.3°F15.7°C 56.4°F13.6°C 87% 1.1 mph SSE1.8 kmh SSE 4.5 mph7.2 kmh 29.65 in1004.1 mb 0.00 in0.0 mm 0.00 in0.0 mm 0.00 in0.0 mm
01:30 AM 60.1°F15.6°C 56.5°F13.6°C 88% 0.6 mph S1.0 kmh S 4.5 mph7.2 kmh 29.64 in1003.7 mb 0.00 in0.0 mm 0.00 in0.0 mm 0.00 in0.0 mm
01:40 AM 60.1°F15.6°C 56.8°F13.8°C 89% Calm Calm -- 29.63 in1003.4 mb 0.00 in0.0 mm 0.00 in0.0 mm 0.00 in0.0 mm
01:50 AM 59.9°F15.5°C 56.7°F13.7°C 89% Calm Calm -- 29.64 in1003.7 mb 0.00 in0.0 mm 0.00 in0.0 mm 0.00 in0.0 mm
02:00 AM 59.9°F15.5°C 56.7°F13.7°C 89% Calm Calm -- 29.63 in1003.4 mb 0.00 in0.0 mm 0.00 in0.0 mm 0.00 in0.0 mm
02:10 AM 59.7°F15.4°C 56.5°F13.6°C 89% Calm Calm -- 29.64 in1003.7 mb 0.00 in0.0 mm 0.00 in0.0 mm 0.00 in0.0 mm
02:20 AM 59.7°F15.4°C 56.5°F13.6°C 89% Calm Calm -- 29.63 in1003.4 mb 0.00 in0.0 mm 0.00 in0.0 mm 0.00 in0.0 mm
02:30 AM 59.5°F15.3°C 56.3°F13.5°C 89% Calm Calm -- 29.63 in1003.4 mb 0.00 in0.0 mm 0.00 in0.0 mm 0.00 in0.0 mm
02:40 AM 59.4°F15.2°C 56.1°F13.4°C 89% Calm Calm -- 29.62 in1003.0 mb 0.00 in0.0 mm 0.00 in0.0 mm 0.00 in0.0 mm
02:50 AM 59.4°F15.2°C 56.1°F13.4°C 89% Calm Calm -- 29.62 in1003.0 mb 0.00 in0.0 mm 0.00 in0.0 mm 0.00 in0.0 mm
03:00 AM 59.4°F15.2°C 56.1°F13.4°C 89% Calm Calm -- 29.63 in1003.4 mb 0.00 in0.0 mm 0.00 in0.0 mm 0.00 in0.0 mm
03:10 AM 59.4°F15.2°C 56.1°F13.4°C 89% Calm Calm -- 29.62 in1003.0 mb 0.00 in0.0 mm 0.00 in0.0 mm 0.00 in0.0 mm
03:20 AM 59.4°F15.2°C 56.1°F13.4°C 89% Calm Calm -- 29.62 in1003.0 mb 0.00 in0.0 mm 0.00 in0.0 mm 0.00 in0.0 mm
03:30 AM 59.4°F15.2°C 56.1°F13.4°C 89% Calm Calm -- 29.62 in1003.0 mb 0.00 in0.0 mm 0.00 in0.0 mm 0.00 in0.0 mm
03:40 AM 59.4°F15.2°C 56.1°F13.4°C 89% Calm Calm -- 29.62 in1003.0 mb 0.00 in0.0 mm 0.00 in0.0 mm 0.00 in0.0 mm
03:50 AM 59.4°F15.2°C 56.1°F13.4°C 89% Calm Calm -- 29.62 in1003.0 mb 0.00 in0.0 mm 0.00 in0.0 mm 0.00 in0.0 mm
04:00 AM 59.4°F15.2°C 56.1°F13.4°C 89% Calm Calm -- 29.62 in1003.0 mb 0.00 in0.0 mm 0.00 in0.0 mm 0.00 in0.0 mm
04:10 AM 59.4°F15.2°C 56.1°F13.4°C 89% Calm Calm -- 29.62 in1003.0 mb 0.00 in0.0 mm 0.00 in0.0 mm 0.00 in0.0 mm
04:20 AM 59.4°F15.2°C 56.1°F13.4°C 89% Calm Calm -- 29.62 in1003.0 mb 0.00 in0.0 mm 0.00 in0.0 mm 0.00 in0.0 mm
04:30 AM 59.4°F15.2°C 56.1°F13.4°C 89% Calm Calm -- 29.63 in1003.4 mb 0.00 in0.0 mm 0.00 in0.0 mm 0.00 in0.0 mm
04:40 AM 59.4°F15.2°C 56.1°F13.4°C 89% Calm Calm -- 29.63 in1003.4 mb 0.00 in0.0 mm 0.00 in0.0 mm 0.00 in0.0 mm
04:50 AM 59.4°F15.2°C 56.1°F13.4°C 89% Calm Calm -- 29.63 in1003.4 mb 0.00 in0.0 mm 0.00 in0.0 mm 0.00 in0.0 mm
05:00 AM 59.4°F15.2°C 56.1°F13.4°C 89% Calm Calm -- 29.63 in1003.4 mb 0.00 in0.0 mm 0.00 in0.0 mm 0.00 in0.0 mm
05:10 AM 59.4°F15.2°C 56.1°F13.4°C 89% Calm Calm -- 29.63 in1003.4 mb 0.00 in0.0 mm 0.00 in0.0 mm 0.00 in0.0 mm
05:20 AM 59.4°F15.2°C 56.1°F13.4°C 89% Calm Calm -- 29.62 in1003.0 mb 0.00 in0.0 mm 0.00 in0.0 mm 0.00 in0.0 mm
05:30 AM 59.4°F15.2°C 56.1°F13.4°C 89% Calm Calm -- 29.63 in1003.4 mb 0.00 in0.0 mm 0.00 in0.0 mm 0.00 in0.0 mm
05:40 AM 59.4°F15.2°C 56.1°F13.4°C 89% Calm Calm -- 29.62 in1003.0 mb 0.00 in0.0 mm 0.00 in0.0 mm 0.00 in0.0 mm
05:50 AM 59.4°F15.2°C 56.1°F13.4°C 89% Calm Calm -- 29.62 in1003.0 mb 0.00 in0.0 mm 0.00 in0.0 mm 0.00 in0.0 mm
06:00 AM 60.8°F16.0°C 56.6°F13.7°C 86% 5.0 mph E8.0 kmh E 6.0 mph9.7 kmh 29.62 in1003.0 mb 0.00 in0.0 mm 0.00 in0.0 mm 0.00 in0.0 mm
06:10 AM 60.6°F15.9°C 56.4°F13.6°C 86% 4.3 mph ENE6.9 kmh ENE 6.0 mph9.7 kmh 29.62 in1003.0 mb 0.00 in0.0 mm 0.00 in0.0 mm 0.00 in0.0 mm
06:20 AM 60.6°F15.9°C 56.4°F13.6°C 86% 4.0 mph ENE6.4 kmh ENE 6.0 mph9.7 kmh 29.62 in1003.0 mb 0.00 in0.0 mm 0.00 in0.0 mm 0.00 in0.0 mm
06:30 AM 61.3°F16.3°C 57.5°F14.2°C 87% 4.1 mph NE6.6 kmh NE 6.0 mph9.7 kmh 29.62 in1003.0 mb 0.00 in0.0 mm 0.00 in0.0 mm 0.00 in0.0 mm
06:40 AM 61.3°F16.3°C 57.1°F13.9°C 86% 4.3 mph E6.9 kmh E 7.6 mph12.2 kmh 29.62 in1003.0 mb 0.00 in0.0 mm 0.00 in0.0 mm 0.00 in0.0 mm
06:50 AM 62.1°F16.7°C 57.8°F14.3°C 86% 5.0 mph ENE8.0 kmh ENE 6.0 mph9.7 kmh 29.63 in1003.4 mb 0.00 in0.0 mm 0.00 in0.0 mm 0.00 in0.0 mm
07:00 AM 62.2°F16.8°C 57.7°F14.3°C 85% 4.4 mph NE7.1 kmh NE 6.0 mph9.7 kmh 29.63 in1003.4 mb 0.00 in0.0 mm 0.00 in0.0 mm 0.00 in0.0 mm
07:10 AM 63.3°F17.4°C 58.8°F14.9°C 85% 4.7 mph NNE7.6 kmh NNE 6.9 mph11.1 kmh 29.63 in1003.4 mb 0.00 in0.0 mm 0.00 in0.0 mm 0.00 in0.0 mm
07:20 AM 64.9°F18.3°C 58.6°F14.8°C 80% 4.0 mph NE6.4 kmh NE 6.0 mph9.7 kmh 29.64 in1003.7 mb 0.00 in0.0 mm 0.00 in0.0 mm 0.00 in0.0 mm
07:30 AM 67.3°F19.6°C 59.1°F15.1°C 75% 4.0 mph NNE6.4 kmh NNE 5.4 mph8.7 kmh 29.63 in1003.4 mb 0.00 in0.0 mm 0.00 in0.0 mm 0.00 in0.0 mm
07:40 AM 68.2°F20.1°C 58.8°F14.9°C 72% 5.0 mph N8.0 kmh N 6.0 mph9.7 kmh 29.63 in1003.4 mb 0.00 in0.0 mm 0.00 in0.0 mm 0.00 in0.0 mm
07:50 AM 68.7°F20.4°C 58.6°F14.8°C 70% 5.1 mph NE8.2 kmh NE 7.6 mph12.2 kmh 29.63 in1003.4 mb 0.00 in0.0 mm 0.00 in0.0 mm 0.00 in0.0 mm
08:00 AM 69.8°F21.0°C 59.6°F15.3°C 70% 5.1 mph ENE8.2 kmh ENE 7.6 mph12.2 kmh 29.63 in1003.4 mb 0.00 in0.0 mm 0.00 in0.0 mm 0.00 in0.0 mm
08:10 AM 70.0°F21.1°C 59.4°F15.2°C 69% 6.2 mph ENE10.0 kmh ENE 8.3 mph13.4 kmh 29.64 in1003.7 mb 0.00 in0.0 mm 0.00 in0.0 mm 0.00 in0.0 mm
08:20 AM 67.5°F19.7°C 57.4°F14.1°C 70% 6.7 mph NE10.8 kmh NE 9.2 mph14.8 kmh 29.63 in1003.4 mb 0.00 in0.0 mm 0.00 in0.0 mm 0.00 in0.0 mm
08:30 AM 67.5°F19.7°C 58.1°F14.5°C 72% 6.5 mph NE10.5 kmh NE 8.3 mph13.4 kmh 29.64 in1003.7 mb 0.00 in0.0 mm 0.00 in0.0 mm 0.00 in0.0 mm
08:40 AM 68.4°F20.2°C 58.6°F14.8°C 71% 6.4 mph NE10.3 kmh NE 10.7 mph17.2 kmh 29.64 in1003.7 mb 0.00 in0.0 mm 0.00 in0.0 mm 0.00 in0.0 mm
08:50 AM 69.1°F20.6°C 58.5°F14.7°C 69% 8.2 mph ENE13.2 kmh ENE 10.7 mph17.2 kmh 29.64 in1003.7 mb 0.00 in0.0 mm 0.00 in0.0 mm 0.00 in0.0 mm
09:00 AM 69.3°F20.7°C 59.1°F15.1°C 70% 6.5 mph NE10.5 kmh NE 8.3 mph13.4 kmh 29.63 in1003.4 mb 0.00 in0.0 mm 0.00 in0.0 mm 0.00 in0.0 mm
09:10 AM 70.7°F21.5°C 59.2°F15.1°C 67% 7.2 mph NE11.6 kmh NE 9.2 mph14.8 kmh 29.63 in1003.4 mb 0.00 in0.0 mm 0.00 in0.0 mm 0.00 in0.0 mm
09:20 AM 71.2°F21.8°C 58.5°F14.7°C 64% 8.7 mph NE14.0 kmh NE 12.1 mph19.5 kmh 29.64 in1003.7 mb 0.00 in0.0 mm 0.00 in0.0 mm 0.00 in0.0 mm
09:30 AM 71.4°F21.9°C 57.7°F14.3°C 62% 9.3 mph ENE15.0 kmh ENE 12.1 mph19.5 kmh 29.63 in1003.4 mb 0.00 in0.0 mm 0.00 in0.0 mm 0.00 in0.0 mm
09:40 AM 71.8°F22.1°C 57.6°F14.2°C 61% 8.9 mph NE14.3 kmh NE 12.1 mph19.5 kmh 29.63 in1003.4 mb 0.00 in0.0 mm 0.00 in0.0 mm 0.00 in0.0 mm
09:50 AM 71.8°F22.1°C 57.2°F14.0°C 60% 9.1 mph ENE14.6 kmh ENE 14.5 mph23.3 kmh 29.63 in1003.4 mb 0.00 in0.0 mm 0.00 in0.0 mm 0.00 in0.0 mm
10:00 AM 73.0°F22.8°C 56.9°F13.8°C 57% 7.2 mph NE11.6 kmh NE 13.6 mph21.9 kmh 29.63 in1003.4 mb 0.00 in0.0 mm 0.00 in0.0 mm 0.00 in0.0 mm
10:10 AM 73.8°F23.2°C 56.6°F13.7°C 55% 8.8 mph NE14.2 kmh NE 13.6 mph21.9 kmh 29.63 in1003.4 mb 0.00 in0.0 mm 0.00 in0.0 mm 0.00 in0.0 mm
10:20 AM 73.6°F23.1°C 54.9°F12.7°C 52% 7.4 mph NE11.9 kmh NE 9.8 mph15.8 kmh 29.64 in1003.7 mb 0.00 in0.0 mm 0.00 in0.0 mm 0.00 in0.0 mm
10:30 AM 73.4°F23.0°C 54.2°F12.3°C 51% 9.0 mph NE14.5 kmh NE 11.4 mph18.3 kmh 29.63 in1003.4 mb 0.00 in0.0 mm 0.00 in0.0 mm 0.00 in0.0 mm
10:40 AM 73.6°F23.1°C 53.8°F12.1°C 50% 8.4 mph NE13.5 kmh NE 13.0 mph20.9 kmh 29.62 in1003.0 mb 0.00 in0.0 mm 0.00 in0.0 mm 0.00 in0.0 mm
10:50 AM 73.6°F23.1°C 51.0°F10.6°C 45% 9.3 mph NE15.0 kmh NE 13.0 mph20.9 kmh 29.63 in1003.4 mb 0.00 in0.0 mm 0.00 in0.0 mm 0.00 in0.0 mm
11:00 AM 73.8°F23.2°C 51.7°F10.9°C 46% 8.5 mph ENE13.7 kmh ENE 12.1 mph19.5 kmh 29.64 in1003.7 mb 0.00 in0.0 mm 0.00 in0.0 mm 0.00 in0.0 mm
11:10 AM 74.1°F23.4°C 51.5°F10.8°C 45% 8.6 mph NE13.8 kmh NE 11.4 mph18.3 kmh 29.63 in1003.4 mb 0.00 in0.0 mm 0.00 in0.0 mm 0.00 in0.0 mm
11:20 AM 75.2°F24.0°C 53.0°F11.7°C 46% 7.6 mph NE12.2 kmh NE 11.4 mph18.3 kmh 29.63 in1003.4 mb 0.00 in0.0 mm 0.00 in0.0 mm 0.00 in0.0 mm
11:30 AM 75.2°F24.0°C 52.4°F11.3°C 45% 8.4 mph NE13.5 kmh NE 11.4 mph18.3 kmh 29.64 in1003.7 mb 0.00 in0.0 mm 0.00 in0.0 mm 0.00 in0.0 mm
11:40 AM 75.0°F23.9°C 51.7°F10.9°C 44% 7.8 mph NE12.6 kmh NE 11.4 mph18.3 kmh 29.64 in1003.7 mb 0.00 in0.0 mm 0.00 in0.0 mm 0.00 in0.0 mm
11:50 AM 75.0°F23.9°C 49.8°F9.9°C 41% 9.0 mph NE14.5 kmh NE 10.7 mph17.2 kmh 29.63 in1003.4 mb 0.00 in0.0 mm 0.00 in0.0 mm 0.00 in0.0 mm
12:00 PM 76.1°F24.5°C 50.1°F10.1°C 40% 8.1 mph NNE13.0 kmh NNE 10.7 mph17.2 kmh 29.62 in1003.0 mb 0.00 in0.0 mm 0.00 in0.0 mm 0.00 in0.0 mm
12:10 PM 76.1°F24.5°C 49.4°F9.7°C 39% 7.5 mph NE12.1 kmh NE 13.0 mph20.9 kmh 29.62 in1003.0 mb 0.00 in0.0 mm 0.00 in0.0 mm 0.00 in0.0 mm
12:20 PM 76.1°F24.5°C 50.1°F10.1°C 40% 8.6 mph NE13.8 kmh NE 11.4 mph18.3 kmh 29.62 in1003.0 mb 0.00 in0.0 mm 0.00 in0.0 mm 0.00 in0.0 mm
12:30 PM 76.3°F24.6°C 47.4°F8.6°C 36% 9.6 mph N15.4 kmh N 13.0 mph20.9 kmh 29.62 in1003.0 mb 0.00 in0.0 mm 0.00 in0.0 mm 0.00 in0.0 mm
12:40 PM 77.0°F25.0°C 50.9°F10.5°C 40% 8.3 mph ENE13.4 kmh ENE 9.8 mph15.8 kmh 29.62 in1003.0 mb 0.00 in0.0 mm 0.00 in0.0 mm 0.00 in0.0 mm
12:50 PM 75.9°F24.4°C 47.1°F8.4°C 36% 9.3 mph NE15.0 kmh NE 11.4 mph18.3 kmh 29.62 in1003.0 mb 0.00 in0.0 mm 0.00 in0.0 mm 0.00 in0.0 mm
01:00 PM 76.3°F24.6°C 48.1°F8.9°C 37% 9.2 mph NE14.8 kmh NE 13.0 mph20.9 kmh 29.62 in1003.0 mb 0.00 in0.0 mm 0.00 in0.0 mm 0.00 in0.0 mm
01:10 PM 76.6°F24.8°C 48.4°F9.1°C 37% 9.6 mph E15.4 kmh E 13.0 mph20.9 kmh 29.62 in1003.0 mb 0.00 in0.0 mm 0.00 in0.0 mm 0.00 in0.0 mm
01:20 PM 77.2°F25.1°C 48.9°F9.4°C 37% 8.3 mph NE13.4 kmh NE 11.4 mph18.3 kmh 29.62 in1003.0 mb 0.00 in0.0 mm 0.00 in0.0 mm 0.00 in0.0 mm
01:30 PM 77.5°F25.3°C 50.7°F10.4°C 39% 7.7 mph ENE12.4 kmh ENE 9.8 mph15.8 kmh 29.61 in1002.7 mb 0.00 in0.0 mm 0.00 in0.0 mm 0.00 in0.0 mm
01:40 PM 77.7°F25.4°C 50.1°F10.1°C 38% 8.4 mph ENE13.5 kmh ENE 11.4 mph18.3 kmh 29.61 in1002.7 mb 0.00 in0.0 mm 0.00 in0.0 mm 0.00 in0.0 mm
01:50 PM 77.9°F25.5°C 48.1°F8.9°C 35% 7.1 mph E11.4 kmh E 9.8 mph15.8 kmh 29.61 in1002.7 mb 0.00 in0.0 mm 0.00 in0.0 mm 0.00 in0.0 mm
02:00 PM 78.3°F25.7°C 49.9°F9.9°C 37% 7.9 mph NE12.7 kmh NE 12.1 mph19.5 kmh 29.61 in1002.7 mb 0.00 in0.0 mm 0.00 in0.0 mm 0.00 in0.0 mm
02:10 PM 77.4°F25.2°C 49.1°F9.5°C 37% 9.8 mph NE15.8 kmh NE 13.0 mph20.9 kmh 29.60 in1002.4 mb 0.00 in0.0 mm 0.00 in0.0 mm 0.00 in0.0 mm
02:20 PM 78.3°F25.7°C 49.2°F9.6°C 36% 7.7 mph NE12.4 kmh NE 12.1 mph19.5 kmh 29.60 in1002.4 mb 0.00 in0.0 mm 0.00 in0.0 mm 0.00 in0.0 mm
02:30 PM 79.3°F26.3°C 53.0°F11.7°C 40% 7.1 mph ENE11.4 kmh ENE 12.1 mph19.5 kmh 29.60 in1002.4 mb 0.00 in0.0 mm 0.00 in0.0 mm 0.00 in0.0 mm
02:40 PM 78.8°F26.0°C 48.9°F9.4°C 35% 9.3 mph E15.0 kmh E 13.6 mph21.9 kmh 29.61 in1002.7 mb 0.00 in0.0 mm 0.00 in0.0 mm 0.00 in0.0 mm
02:50 PM 78.6°F25.9°C 48.7°F9.3°C 35% 9.0 mph NE14.5 kmh NE 15.2 mph24.5 kmh 29.60 in1002.4 mb 0.00 in0.0 mm 0.00 in0.0 mm 0.00 in0.0 mm
03:00 PM 79.0°F26.1°C 48.3°F9.1°C 34% 8.3 mph N13.4 kmh N 13.0 mph20.9 kmh 29.60 in1002.4 mb 0.00 in0.0 mm 0.00 in0.0 mm 0.00 in0.0 mm
03:10 PM 79.2°F26.2°C 46.8°F8.2°C 32% 7.3 mph NNE11.7 kmh NNE 9.2 mph14.8 kmh 29.60 in1002.4 mb 0.00 in0.0 mm 0.00 in0.0 mm 0.00 in0.0 mm
03:20 PM 79.2°F26.2°C 47.6°F8.7°C 33% 7.8 mph NE12.6 kmh NE 10.7 mph17.2 kmh 29.59 in1002.0 mb 0.00 in0.0 mm 0.00 in0.0 mm 0.00 in0.0 mm
03:30 PM 79.3°F26.3°C 48.6°F9.2°C 34% 7.7 mph ENE12.4 kmh ENE 13.6 mph21.9 kmh 29.59 in1002.0 mb 0.00 in0.0 mm 0.00 in0.0 mm 0.00 in0.0 mm
03:40 PM 78.3°F25.7°C 47.6°F8.7°C 34% 8.6 mph NE13.8 kmh NE 13.6 mph21.9 kmh 29.59 in1002.0 mb 0.00 in0.0 mm 0.00 in0.0 mm 0.00 in0.0 mm
03:50 PM 78.1°F25.6°C 46.7°F8.2°C 33% 9.6 mph ENE15.4 kmh ENE 14.5 mph23.3 kmh 29.60 in1002.4 mb 0.00 in0.0 mm 0.00 in0.0 mm 0.00 in0.0 mm
04:00 PM 78.6°F25.9°C 46.3°F7.9°C 32% 8.6 mph ENE13.8 kmh ENE 13.0 mph20.9 kmh 29.59 in1002.0 mb 0.00 in0.0 mm 0.00 in0.0 mm 0.00 in0.0 mm
04:10 PM 79.0°F26.1°C 46.6°F8.1°C 32% 7.5 mph E12.1 kmh E 13.0 mph20.9 kmh 29.59 in1002.0 mb 0.00 in0.0 mm 0.00 in0.0 mm 0.00 in0.0 mm
04:20 PM 78.8°F26.0°C 45.6°F7.6°C 31% 7.8 mph ENE12.6 kmh ENE 11.4 mph18.3 kmh 29.59 in1002.0 mb 0.00 in0.0 mm 0.00 in0.0 mm 0.00 in0.0 mm
04:30 PM 79.0°F26.1°C 45.8°F7.7°C 31% 7.2 mph NE11.6 kmh NE 11.4 mph18.3 kmh 29.59 in1002.0 mb 0.00 in0.0 mm 0.00 in0.0 mm 0.00 in0.0 mm
04:40 PM 78.4°F25.8°C 47.0°F8.3°C 33% 8.0 mph NE12.9 kmh NE 9.2 mph14.8 kmh 29.59 in1002.0 mb 0.00 in0.0 mm 0.00 in0.0 mm 0.00 in0.0 mm
04:50 PM 78.6°F25.9°C 47.1°F8.4°C 33% 7.8 mph ENE12.6 kmh ENE 11.4 mph18.3 kmh 29.59 in1002.0 mb 0.00 in0.0 mm 0.00 in0.0 mm 0.00 in0.0 mm
05:00 PM 78.4°F25.8°C 46.2°F7.9°C 32% 8.1 mph NE13.0 kmh NE 11.4 mph18.3 kmh 29.59 in1002.0 mb 0.00 in0.0 mm 0.00 in0.0 mm 0.00 in0.0 mm
05:10 PM 78.6°F25.9°C 45.5°F7.5°C 31% 7.7 mph ENE12.4 kmh ENE 9.8 mph15.8 kmh 29.59 in1002.0 mb 0.00 in0.0 mm 0.00 in0.0 mm 0.00 in0.0 mm
05:20 PM 78.8°F26.0°C 45.6°F7.6°C 31% 8.0 mph ESE12.9 kmh ESE 10.7 mph17.2 kmh 29.59 in1002.0 mb 0.00 in0.0 mm 0.00 in0.0 mm 0.00 in0.0 mm
05:30 PM 78.1°F25.6°C 45.9°F7.7°C 32% 7.0 mph E11.3 kmh E 10.7 mph17.2 kmh 29.60 in1002.4 mb 0.00 in0.0 mm 0.00 in0.0 mm 0.00 in0.0 mm
05:40 PM 78.1°F25.6°C 46.7°F8.2°C 33% 6.9 mph E11.1 kmh E 10.7 mph17.2 kmh 29.60 in1002.4 mb 0.00 in0.0 mm 0.00 in0.0 mm 0.00 in0.0 mm
05:50 PM 77.0°F25.0°C 44.9°F7.2°C 32% 9.6 mph ENE15.4 kmh ENE 12.1 mph19.5 kmh 29.60 in1002.4 mb 0.00 in0.0 mm 0.00 in0.0 mm 0.00 in0.0 mm
06:00 PM 77.2°F25.1°C 45.1°F7.3°C 32% 8.4 mph NE13.5 kmh NE 9.8 mph15.8 kmh 29.60 in1002.4 mb 0.00 in0.0 mm 0.00 in0.0 mm 0.00 in0.0 mm
06:10 PM 77.4°F25.2°C 46.0°F7.8°C 33% 7.6 mph NE12.2 kmh NE 9.8 mph15.8 kmh 29.60 in1002.4 mb 0.00 in0.0 mm 0.00 in0.0 mm 0.00 in0.0 mm
06:20 PM 77.7°F25.4°C 46.4°F8.0°C 33% 6.3 mph NE10.1 kmh NE 8.3 mph13.4 kmh 29.60 in1002.4 mb 0.00 in0.0 mm 0.00 in0.0 mm 0.00 in0.0 mm
06:30 PM 77.7°F25.4°C 47.2°F8.4°C 34% 6.0 mph NE9.7 kmh NE 8.3 mph13.4 kmh 29.60 in1002.4 mb 0.00 in0.0 mm 0.00 in0.0 mm 0.00 in0.0 mm
06:40 PM 77.0°F25.0°C 47.3°F8.5°C 35% 6.9 mph ENE11.1 kmh ENE 9.2 mph14.8 kmh 29.60 in1002.4 mb 0.00 in0.0 mm 0.00 in0.0 mm 0.00 in0.0 mm
06:50 PM 76.3°F24.6°C 46.7°F8.2°C 35% 6.9 mph ENE11.1 kmh ENE 8.3 mph13.4 kmh 29.60 in1002.4 mb 0.00 in0.0 mm 0.00 in0.0 mm 0.00 in0.0 mm
07:00 PM 75.7°F24.3°C 47.7°F8.7°C 37% 7.3 mph NE11.7 kmh NE 9.8 mph15.8 kmh 29.60 in1002.4 mb 0.00 in0.0 mm 0.00 in0.0 mm 0.00 in0.0 mm
07:10 PM 75.9°F24.4°C 48.5°F9.2°C 38% 5.3 mph E8.5 kmh E 7.6 mph12.2 kmh 29.61 in1002.7 mb 0.00 in0.0 mm 0.00 in0.0 mm 0.00 in0.0 mm
07:20 PM 75.2°F24.0°C 49.9°F9.9°C 41% 5.1 mph NE8.2 kmh NE 6.9 mph11.1 kmh 29.61 in1002.7 mb 0.00 in0.0 mm 0.00 in0.0 mm 0.00 in0.0 mm
07:30 PM 74.5°F23.6°C 50.5°F10.3°C 43% 3.0 mph E4.8 kmh E 3.8 mph6.1 kmh 29.61 in1002.7 mb 0.00 in0.0 mm 0.00 in0.0 mm 0.00 in0.0 mm
07:40 PM 72.7°F22.6°C 50.1°F10.1°C 45% 3.4 mph E5.5 kmh E 6.9 mph11.1 kmh 29.61 in1002.7 mb 0.00 in0.0 mm 0.00 in0.0 mm 0.00 in0.0 mm
07:50 PM 71.4°F21.9°C 52.4°F11.3°C 51% 3.3 mph E5.3 kmh E 4.5 mph7.2 kmh 29.61 in1002.7 mb 0.00 in0.0 mm 0.00 in0.0 mm 0.00 in0.0 mm
08:00 PM 69.6°F20.9°C 51.8°F11.0°C 53% 3.4 mph ENE5.5 kmh ENE 4.5 mph7.2 kmh 29.62 in1003.0 mb 0.00 in0.0 mm 0.00 in0.0 mm 0.00 in0.0 mm
08:10 PM 67.8°F19.9°C 51.1°F10.6°C 55% 3.6 mph E5.8 kmh E 4.5 mph7.2 kmh 29.62 in1003.0 mb 0.00 in0.0 mm 0.00 in0.0 mm 0.00 in0.0 mm
08:20 PM 66.7°F19.3°C 51.5°F10.8°C 58% 3.7 mph ENE6.0 kmh ENE 4.5 mph7.2 kmh 29.63 in1003.4 mb 0.00 in0.0 mm 0.00 in0.0 mm 0.00 in0.0 mm
08:30 PM 66.2°F19.0°C 51.9°F11.1°C 60% 3.9 mph E6.3 kmh E 4.5 mph7.2 kmh 29.62 in1003.0 mb 0.00 in0.0 mm 0.00 in0.0 mm 0.00 in0.0 mm
08:40 PM 65.7°F18.7°C 51.9°F11.1°C 61% 3.4 mph NE5.5 kmh NE 4.5 mph7.2 kmh 29.63 in1003.4 mb 0.00 in0.0 mm 0.00 in0.0 mm 0.00 in0.0 mm
08:50 PM 64.9°F18.3°C 51.2°F10.7°C 61% 1.7 mph E2.7 kmh E 3.8 mph6.1 kmh 29.63 in1003.4 mb 0.00 in0.0 mm 0.00 in0.0 mm 0.00 in0.0 mm
09:00 PM 64.0°F17.8°C 50.8°F10.4°C 62% Calm Calm -- 29.64 in1003.7 mb 0.00 in0.0 mm 0.00 in0.0 mm 0.00 in0.0 mm
09:10 PM 63.5°F17.5°C 50.7°F10.4°C 63% Calm Calm -- 29.63 in1003.4 mb 0.00 in0.0 mm 0.00 in0.0 mm 0.00 in0.0 mm
09:20 PM 63.3°F17.4°C 52.6°F11.4°C 68% Calm Calm -- 29.64 in1003.7 mb 0.00 in0.0 mm 0.00 in0.0 mm 0.00 in0.0 mm
09:30 PM 62.4°F16.9°C 51.7°F10.9°C 68% Calm Calm -- 29.63 in1003.4 mb 0.00 in0.0 mm 0.00 in0.0 mm 0.00 in0.0 mm
09:40 PM 62.2°F16.8°C 52.3°F11.3°C 70% Calm Calm -- 29.64 in1003.7 mb 0.00 in0.0 mm 0.00 in0.0 mm 0.00 in0.0 mm
09:50 PM 61.7°F16.5°C 51.8°F11.0°C 70% Calm Calm -- 29.64 in1003.7 mb 0.00 in0.0 mm 0.00 in0.0 mm 0.00 in0.0 mm
10:00 PM 61.3°F16.3°C 51.9°F11.1°C 71% Calm Calm -- 29.64 in1003.7 mb 0.00 in0.0 mm 0.00 in0.0 mm 0.00 in0.0 mm
10:10 PM 61.5°F16.4°C 52.0°F11.1°C 71% 1.1 mph NE1.8 kmh NE 3.1 mph5.0 kmh 29.64 in1003.7 mb 0.00 in0.0 mm 0.00 in0.0 mm 0.00 in0.0 mm
10:20 PM 61.5°F16.4°C 52.4°F11.3°C 72% 1.9 mph NE3.1 kmh NE 3.8 mph6.1 kmh 29.65 in1004.1 mb 0.00 in0.0 mm 0.00 in0.0 mm 0.00 in0.0 mm
10:30 PM 61.3°F16.3°C 52.3°F11.3°C 72% 1.0 mph E1.6 kmh E 3.8 mph6.1 kmh 29.65 in1004.1 mb 0.00 in0.0 mm 0.00 in0.0 mm 0.00 in0.0 mm
10:40 PM 61.2°F16.2°C 52.1°F11.2°C 72% Calm Calm -- 29.65 in1004.1 mb 0.00 in0.0 mm 0.00 in0.0 mm 0.00 in0.0 mm
10:50 PM 60.8°F16.0°C 52.5°F11.4°C 74% 0.1 mph ENE0.2 kmh ENE 0.7 mph1.1 kmh 29.65 in1004.1 mb 0.00 in0.0 mm 0.00 in0.0 mm 0.00 in0.0 mm
11:00 PM 60.6°F15.9°C 53.0°F11.7°C 76% Calm Calm -- 29.65 in1004.1 mb 0.00 in0.0 mm 0.00 in0.0 mm 0.00 in0.0 mm
11:10 PM 60.4°F15.8°C 53.2°F11.8°C 77% Calm Calm -- 29.66 in1004.4 mb 0.00 in0.0 mm 0.00 in0.0 mm 0.00 in0.0 mm
11:20 PM 60.1°F15.6°C 52.9°F11.6°C 77% Calm Calm -- 29.66 in1004.4 mb 0.00 in0.0 mm 0.00 in0.0 mm 0.00 in0.0 mm
11:30 PM 59.9°F15.5°C 52.7°F11.5°C 77% Calm Calm -- 29.66 in1004.4 mb 0.00 in0.0 mm 0.00 in0.0 mm 0.00 in0.0 mm
11:40 PM 60.1°F15.6°C 53.2°F11.8°C 78% Calm Calm -- 29.66 in1004.4 mb 0.00 in0.0 mm 0.00 in0.0 mm 0.00 in0.0 mm
11:50 PM 59.9°F15.5°C 53.4°F11.9°C 79% 0.3 mph NE0.5 kmh NE 3.8 mph6.1 kmh 29.66 in1004.4 mb 0.00 in0.0 mm 0.00 in0.0 mm 0.00 in0.0 mm